Wentworth, Wisconsin
Current Conditions -  °F | °C
As of 4:55 AM on Monday 20 Oct 2014 (Local Time) from KSUW Reporting Station
Clear Clear  
Wind Chill: 39°   Ceiling: Unl
Heat Index: 42°   Visibility: 10mi
Dew Point: 40°   Wind: 6mph
Humidity: 90%   Direction: 240°WSW
Pressure: 29.89"   Gusts: NA
Location:  46.578°N, 91.9335°W
Report Text: KSUW 200955Z AUTO 24005KT 10SM CLR 06/04 A2989 RMK AO2 T00570042
Loading
Personal Weather Stations






























Interactive Weather Map
Tropical Storm Tracking
New forecast layout! Learn more

10-Day Weather Forecast

Advertisements
Track Severe Weather on mobile